Disclaimer

Please do not use the information listed here in-flight or in-navigation, as they are not provided to us by the airports but are provided by volunteers, so they might be outdated.

Search


Regions


Airport information page

Radio informations:
Tower (TWR) - 118.6 MHz

Airport informations:
Latitude: 33° 55' 38.14" N
Longitude: 004° 58' 40.65" W
Elevation: 1900 feet - 579 meters
Operating hours: 24 hour operations
Operating agency: Civil government, landing fees and diplomatic clearance may be required
Timezone: UTC 0
Fuel: Jet A1+, Jet A1 with icing inhibitor.

Runway information:
09/27 - 10499 x 148 feet< - >3200 x 45 meters

Recent METARs:
GMFF 131830Z 00000KT 9999 SCT020 BKN080 14/10 Q1018 NOSIG
GMFF 131900Z 18005KT 120V190 8000 SCT020 BKN080 13/11 Q1018 NOSIG
GMFF 131930Z 21003KT 170V250 8000 SCT020 BKN080 13/11 Q1018 NOSIG

Airport on the map: